SWA2280 PHNL-KSAN
Flight info
| Callsign | SWA2280 |
|---|---|
| Flight time | 4h 51m |
| Altitude | 35000 |
| Route | MKK5 CODDY EBBER R577 ELKEY SXC COMIX2 |
| Aircraft | B737/M-SADE2E3GIJ4RWZ/LB1D1 |
Departure
| Time | 2026-05-04 14:07 |
|---|---|
| Airport | Daniel K. Inouye International Airport (PHNL) |
Arrival
| Time | 2026-05-04 18:59 |
|---|---|
| Airport | San Diego International Airport (KSAN) |
| Time | Latitude | Longitude | Altitude | Speed | Heading |
|---|---|---|---|---|---|
| 2026-05-04 13:21 | 21.32896 | -157.91981 | 27 ft | 0 kts | 318° |
| 2026-05-04 13:52 | 21.32889 | -157.91975 | 28 ft | 3 kts | 318° |
| 2026-05-04 13:53 | 21.32875 | -157.91961 | 28 ft | 3 kts | 318° |
| 2026-05-04 13:53 | 21.32861 | -157.91948 | 28 ft | 3 kts | 318° |
| 2026-05-04 13:53 | 21.32848 | -157.91934 | 27 ft | 3 kts | 317° |
| 2026-05-04 13:54 | 21.32843 | -157.91904 | 23 ft | 3 kts | 193° |
| 2026-05-04 13:54 | 21.32861 | -157.91906 | 26 ft | 3 kts | 150° |
| 2026-05-04 13:54 | 21.32888 | -157.91928 | 27 ft | 0 kts | 140° |
| 2026-05-04 13:59 | 21.32885 | -157.91926 | 26 ft | 2 kts | 143° |
| 2026-05-04 13:59 | 21.32856 | -157.91917 | 28 ft | 6 kts | 176° |
| 2026-05-04 13:59 | 21.32744 | -157.91944 | 24 ft | 10 kts | 213° |
| 2026-05-04 14:00 | 21.32701 | -157.92003 | 24 ft | 10 kts | 244° |
| 2026-05-04 14:00 | 21.32690 | -157.92148 | 23 ft | 10 kts | 268° |
| 2026-05-04 14:00 | 21.32691 | -157.92220 | 23 ft | 10 kts | 270° |
| 2026-05-04 14:01 | 21.32692 | -157.92301 | 23 ft | 12 kts | 269° |
| 2026-05-04 14:01 | 21.32692 | -157.92403 | 23 ft | 15 kts | 270° |
| 2026-05-04 14:01 | 21.32692 | -157.92655 | 23 ft | 19 kts | 270° |
| 2026-05-04 14:02 | 21.32727 | -157.92790 | 23 ft | 19 kts | 297° |
| 2026-05-04 14:02 | 21.32744 | -157.92926 | 23 ft | 18 kts | 270° |
| 2026-05-04 14:02 | 21.32743 | -157.93060 | 23 ft | 18 kts | 271° |
| 2026-05-04 14:02 | 21.32744 | -157.93188 | 23 ft | 17 kts | 270° |
| 2026-05-04 14:03 | 21.32742 | -157.93313 | 23 ft | 16 kts | 269° |
| 2026-05-04 14:03 | 21.32740 | -157.93432 | 23 ft | 16 kts | 271° |
| 2026-05-04 14:03 | 21.32743 | -157.93547 | 23 ft | 15 kts | 270° |
| 2026-05-04 14:03 | 21.32742 | -157.93663 | 23 ft | 15 kts | 269° |
| 2026-05-04 14:04 | 21.32743 | -157.93909 | 23 ft | 19 kts | 269° |
| 2026-05-04 14:04 | 21.32743 | -157.94053 | 23 ft | 19 kts | 271° |
| 2026-05-04 14:04 | 21.32742 | -157.94195 | 23 ft | 19 kts | 265° |
| 2026-05-04 14:05 | 21.32739 | -157.94257 | 23 ft | 8 kts | 269° |
| 2026-05-04 14:05 | 21.32719 | -157.94321 | 26 ft | 10 kts | 209° |
| 2026-05-04 14:05 | 21.32649 | -157.94329 | 26 ft | 10 kts | 182° |
| 2026-05-04 14:06 | 21.32581 | -157.94326 | 25 ft | 10 kts | 180° |
| 2026-05-04 14:06 | 21.32525 | -157.94303 | 23 ft | 10 kts | 93° |
| 2026-05-04 14:06 | 21.32527 | -157.94228 | 23 ft | 13 kts | 89° |
| 2026-05-04 14:06 | 21.32526 | -157.93869 | 24 ft | 89 kts | 90° |
| 2026-05-04 14:07 | 21.32531 | -157.92940 | 27 ft | 158 kts | 89° |
| 2026-05-04 14:07 | 21.32544 | -157.91622 | 491 ft | 182 kts | 88° |
| 2026-05-04 14:07 | 21.32381 | -157.90322 | 1689 ft | 174 kts | 110° |
| 2026-05-04 14:07 | 21.31603 | -157.89226 | 2357 ft | 196 kts | 128° |
| 2026-05-04 14:08 | 21.30611 | -157.88136 | 2705 ft | 210 kts | 129° |
| 2026-05-04 14:08 | 21.29571 | -157.87003 | 3339 ft | 214 kts | 129° |
| 2026-05-04 14:08 | 21.28526 | -157.85860 | 4065 ft | 214 kts | 129° |
| 2026-05-04 14:08 | 21.27491 | -157.84713 | 4814 ft | 214 kts | 130° |
| 2026-05-04 14:09 | 21.25448 | -157.82284 | 5922 ft | 231 kts | 130° |
| 2026-05-04 14:09 | 21.24346 | -157.80875 | 6175 ft | 261 kts | 129° |
| 2026-05-04 14:10 | 21.21951 | -157.77734 | 7685 ft | 278 kts | 128° |
| 2026-05-04 14:10 | 21.21109 | -157.75869 | 8508 ft | 284 kts | 100° |
| 2026-05-04 14:10 | 21.20917 | -157.73760 | 9424 ft | 286 kts | 94° |
| 2026-05-04 14:10 | 21.20784 | -157.71603 | 10182 ft | 294 kts | 94° |
| 2026-05-04 14:11 | 21.20618 | -157.69345 | 10506 ft | 317 kts | 95° |
| 2026-05-04 14:11 | 21.20115 | -157.64275 | 10874 ft | 365 kts | 97° |
| 2026-05-04 14:11 | 21.19795 | -157.61555 | 11320 ft | 377 kts | 98° |
| 2026-05-04 14:12 | 21.19442 | -157.58732 | 11983 ft | 381 kts | 98° |
| 2026-05-04 14:12 | 21.19075 | -157.55902 | 12674 ft | 385 kts | 99° |
| 2026-05-04 14:12 | 21.18312 | -157.50153 | 14011 ft | 393 kts | 99° |
| 2026-05-04 14:13 | 21.17922 | -157.47242 | 14560 ft | 398 kts | 99° |
| 2026-05-04 14:13 | 21.17530 | -157.44323 | 15038 ft | 404 kts | 99° |
| 2026-05-04 14:13 | 21.17128 | -157.41328 | 15586 ft | 407 kts | 98° |
| 2026-05-04 14:13 | 21.16723 | -157.38313 | 16140 ft | 411 kts | 98° |
| 2026-05-04 14:14 | 21.16313 | -157.35262 | 16602 ft | 417 kts | 98° |
| 2026-05-04 14:14 | 21.15478 | -157.29066 | 17717 ft | 422 kts | 98° |
| 2026-05-04 14:14 | 21.15054 | -157.25920 | 18083 ft | 430 kts | 98° |
| 2026-05-04 14:15 | 21.14298 | -157.19531 | 19061 ft | 433 kts | 90° |
| 2026-05-04 14:15 | 21.15163 | -157.13172 | 19966 ft | 436 kts | 70° |
| 2026-05-04 14:16 | 21.17511 | -157.07139 | 20621 ft | 445 kts | 64° |
| 2026-05-04 14:16 | 21.18764 | -157.04110 | 21138 ft | 446 kts | 64° |
| 2026-05-04 14:17 | 21.21269 | -156.97964 | 21850 ft | 454 kts | 65° |
| 2026-05-04 14:17 | 21.22518 | -156.94842 | 22236 ft | 457 kts | 65° |
| 2026-05-04 14:17 | 21.25018 | -156.88537 | 23022 ft | 462 kts | 65° |
| 2026-05-04 14:18 | 21.26274 | -156.85359 | 23415 ft | 464 kts | 65° |
| 2026-05-04 14:18 | 21.28804 | -156.78953 | 24043 ft | 469 kts | 65° |
| 2026-05-04 14:19 | 21.31357 | -156.72490 | 24671 ft | 472 kts | 65° |
| 2026-05-04 14:19 | 21.32588 | -156.69262 | 24961 ft | 475 kts | 69° |
| 2026-05-04 14:19 | 21.33468 | -156.65822 | 25238 ft | 479 kts | 78° |
| 2026-05-04 14:19 | 21.33848 | -156.62261 | 25530 ft | 482 kts | 85° |
| 2026-05-04 14:20 | 21.34059 | -156.58675 | 25840 ft | 483 kts | 85° |
| 2026-05-04 14:20 | 21.34242 | -156.55065 | 26118 ft | 485 kts | 86° |
| 2026-05-04 14:20 | 21.34425 | -156.51450 | 26410 ft | 487 kts | 86° |
| 2026-05-04 14:21 | 21.34827 | -156.44168 | 26961 ft | 490 kts | 85° |
| 2026-05-04 14:21 | 21.35046 | -156.40509 | 27225 ft | 492 kts | 85° |
| 2026-05-04 14:21 | 21.35267 | -156.36885 | 27489 ft | 494 kts | 85° |
| 2026-05-04 14:21 | 21.35496 | -156.33190 | 27705 ft | 497 kts | 85° |
| 2026-05-04 14:22 | 21.35725 | -156.29478 | 27937 ft | 499 kts | 85° |
| 2026-05-04 14:22 | 21.35954 | -156.25759 | 28192 ft | 501 kts | 85° |
| 2026-05-04 14:22 | 21.36182 | -156.22028 | 28448 ft | 502 kts | 85° |
| 2026-05-04 14:22 | 21.36409 | -156.18293 | 28760 ft | 502 kts | 85° |
| 2026-05-04 14:23 | 21.36857 | -156.10842 | 29555 ft | 499 kts | 85° |
| 2026-05-04 14:23 | 21.37080 | -156.07126 | 29964 ft | 498 kts | 85° |
| 2026-05-04 14:23 | 21.37301 | -156.03422 | 30321 ft | 497 kts | 85° |
| 2026-05-04 14:24 | 21.37521 | -155.99723 | 30636 ft | 497 kts | 85° |
| 2026-05-04 14:24 | 21.37740 | -155.96016 | 30925 ft | 498 kts | 85° |
| 2026-05-04 14:24 | 21.37959 | -155.92310 | 31231 ft | 498 kts | 85° |
| 2026-05-04 14:24 | 21.38177 | -155.88605 | 31575 ft | 497 kts | 85° |
| 2026-05-04 14:25 | 21.38392 | -155.84939 | 31920 ft | 497 kts | 85° |
| 2026-05-04 14:25 | 21.38823 | -155.77539 | 32541 ft | 498 kts | 85° |
| 2026-05-04 14:25 | 21.39038 | -155.73822 | 32871 ft | 497 kts | 85° |
| 2026-05-04 14:26 | 21.39251 | -155.70122 | 33203 ft | 497 kts | 85° |
| 2026-05-04 14:26 | 21.39465 | -155.66414 | 33516 ft | 497 kts | 85° |
| 2026-05-04 14:26 | 21.39677 | -155.62712 | 33803 ft | 497 kts | 85° |
| 2026-05-04 14:26 | 21.39888 | -155.59005 | 34094 ft | 497 kts | 85° |
| 2026-05-04 14:27 | 21.40098 | -155.55301 | 34359 ft | 497 kts | 85° |
| 2026-05-04 14:27 | 21.40307 | -155.51605 | 34627 ft | 496 kts | 85° |
| 2026-05-04 14:27 | 21.40516 | -155.47909 | 34857 ft | 496 kts | 85° |
| 2026-05-04 14:27 | 21.40723 | -155.44210 | 35056 ft | 497 kts | 85° |
| 2026-05-04 14:28 | 21.41137 | -155.36804 | 35113 ft | 501 kts | 86° |
| 2026-05-04 14:28 | 21.41549 | -155.29359 | 35108 ft | 497 kts | 86° |
| 2026-05-04 14:29 | 21.42357 | -155.14609 | 35114 ft | 492 kts | 85° |
| 2026-05-04 14:30 | 21.43204 | -155.07347 | 35128 ft | 489 kts | 79° |
| 2026-05-04 14:31 | 21.44956 | -154.96545 | 35126 ft | 491 kts | 79° |
| 2026-05-04 14:32 | 21.47001 | -154.83277 | 35125 ft | 495 kts | 79° |
| 2026-05-04 14:32 | 21.48268 | -154.74755 | 35121 ft | 498 kts | 80° |
| 2026-05-04 14:33 | 21.49360 | -154.67393 | 35118 ft | 500 kts | 80° |
| 2026-05-04 14:33 | 21.50275 | -154.61215 | 35117 ft | 501 kts | 80° |
| 2026-05-04 14:34 | 21.51362 | -154.53863 | 35117 ft | 501 kts | 80° |
| 2026-05-04 14:34 | 21.52450 | -154.46480 | 35118 ft | 500 kts | 80° |
| 2026-05-04 14:35 | 21.53535 | -154.39098 | 35119 ft | 499 kts | 80° |
| 2026-05-04 14:35 | 21.54614 | -154.31731 | 35117 ft | 498 kts | 80° |
| 2026-05-04 14:36 | 21.55680 | -154.24428 | 35123 ft | 497 kts | 80° |
| 2026-05-04 14:36 | 21.56750 | -154.17075 | 35119 ft | 497 kts | 80° |
| 2026-05-04 14:37 | 21.57815 | -154.09737 | 35119 ft | 496 kts | 80° |
| 2026-05-04 14:37 | 21.58875 | -154.02408 | 35135 ft | 496 kts | 80° |
| 2026-05-04 14:38 | 21.59925 | -153.95125 | 35127 ft | 496 kts | 80° |
| 2026-05-04 14:38 | 21.60979 | -153.87797 | 35127 ft | 496 kts | 80° |
| 2026-05-04 14:39 | 21.62030 | -153.80462 | 35122 ft | 496 kts | 80° |
| 2026-05-04 14:39 | 21.63078 | -153.73119 | 35122 ft | 497 kts | 80° |
| 2026-05-04 14:40 | 21.64646 | -153.62099 | 35124 ft | 497 kts | 80° |
| 2026-05-04 14:40 | 21.65682 | -153.54782 | 35127 ft | 498 kts | 80° |
| 2026-05-04 14:41 | 21.66721 | -153.47422 | 35125 ft | 498 kts | 80° |
| 2026-05-04 14:42 | 21.68794 | -153.32671 | 35128 ft | 499 kts | 80° |
| 2026-05-04 14:42 | 21.69825 | -153.25299 | 35132 ft | 498 kts | 80° |
| 2026-05-04 14:43 | 21.70867 | -153.17929 | 35124 ft | 498 kts | 78° |
| 2026-05-04 14:43 | 21.73049 | -153.10917 | 35138 ft | 493 kts | 59° |
| 2026-05-04 14:44 | 21.76327 | -153.04497 | 35126 ft | 492 kts | 58° |
| 2026-05-04 14:44 | 21.79676 | -152.98055 | 35124 ft | 493 kts | 58° |
| 2026-05-04 14:45 | 21.82979 | -152.91585 | 35129 ft | 493 kts | 59° |
| 2026-05-04 14:45 | 21.86249 | -152.85098 | 35133 ft | 493 kts | 59° |
| 2026-05-04 14:46 | 21.89510 | -152.78604 | 35134 ft | 493 kts | 59° |
| 2026-05-04 14:46 | 21.92775 | -152.72098 | 35134 ft | 493 kts | 59° |
| 2026-05-04 14:47 | 21.96018 | -152.65631 | 35134 ft | 493 kts | 59° |
| 2026-05-04 14:47 | 21.99282 | -152.59119 | 35134 ft | 494 kts | 59° |
| 2026-05-04 14:48 | 22.02550 | -152.52587 | 35131 ft | 494 kts | 59° |
| 2026-05-04 14:48 | 22.05805 | -152.46076 | 35133 ft | 494 kts | 59° |
| 2026-05-04 14:49 | 22.09060 | -152.39556 | 35138 ft | 494 kts | 59° |
| 2026-05-04 14:49 | 22.12290 | -152.33075 | 35139 ft | 494 kts | 59° |
| 2026-05-04 14:50 | 22.15538 | -152.26553 | 35148 ft | 494 kts | 59° |
| 2026-05-04 14:50 | 22.18788 | -152.20016 | 35142 ft | 494 kts | 59° |
| 2026-05-04 14:51 | 22.22037 | -152.13475 | 35138 ft | 494 kts | 59° |
| 2026-05-04 14:51 | 22.25280 | -152.06937 | 35140 ft | 494 kts | 59° |
| 2026-05-04 14:52 | 22.28523 | -152.00390 | 35141 ft | 494 kts | 59° |
| 2026-05-04 14:52 | 22.31761 | -151.93844 | 35142 ft | 494 kts | 59° |
| 2026-05-04 14:53 | 22.34979 | -151.87330 | 35142 ft | 494 kts | 59° |
| 2026-05-04 14:53 | 22.38199 | -151.80775 | 35150 ft | 494 kts | 59° |
| 2026-05-04 14:54 | 22.41414 | -151.74206 | 35142 ft | 494 kts | 59° |
| 2026-05-04 14:54 | 22.44617 | -151.67653 | 35141 ft | 494 kts | 59° |
| 2026-05-04 14:55 | 22.47824 | -151.61087 | 35142 ft | 494 kts | 59° |
| 2026-05-04 14:55 | 22.51033 | -151.54512 | 35142 ft | 494 kts | 59° |
| 2026-05-04 14:56 | 22.54240 | -151.47930 | 35144 ft | 494 kts | 59° |
| 2026-05-04 14:56 | 22.57444 | -151.41346 | 35143 ft | 494 kts | 59° |
| 2026-05-04 14:57 | 22.60629 | -151.34792 | 35146 ft | 494 kts | 59° |
| 2026-05-04 14:57 | 22.63830 | -151.28197 | 35145 ft | 494 kts | 59° |
| 2026-05-04 14:58 | 22.67027 | -151.21601 | 35144 ft | 494 kts | 59° |
| 2026-05-04 14:58 | 22.70200 | -151.15046 | 35147 ft | 494 kts | 59° |
| 2026-05-04 14:59 | 22.73390 | -151.08449 | 35147 ft | 494 kts | 59° |
| 2026-05-04 15:00 | 22.78167 | -150.98551 | 35159 ft | 494 kts | 59° |
| 2026-05-04 15:00 | 22.81350 | -150.91946 | 35151 ft | 494 kts | 60° |
| 2026-05-04 15:01 | 22.86101 | -150.82071 | 35154 ft | 494 kts | 60° |
| 2026-05-04 15:01 | 22.89275 | -150.75461 | 35151 ft | 494 kts | 60° |
| 2026-05-04 15:02 | 22.92450 | -150.68842 | 35151 ft | 494 kts | 60° |
| 2026-05-04 15:02 | 22.95620 | -150.62224 | 35153 ft | 494 kts | 60° |
| 2026-05-04 15:03 | 22.98784 | -150.55612 | 35161 ft | 494 kts | 60° |
| 2026-05-04 15:03 | 23.01930 | -150.49026 | 35154 ft | 494 kts | 60° |
| 2026-05-04 15:04 | 23.05095 | -150.42392 | 35157 ft | 494 kts | 60° |
| 2026-05-04 15:04 | 23.08250 | -150.35770 | 35153 ft | 494 kts | 60° |
| 2026-05-04 15:05 | 23.11403 | -150.29143 | 35157 ft | 493 kts | 60° |
| 2026-05-04 15:05 | 23.14550 | -150.22519 | 35155 ft | 493 kts | 60° |
| 2026-05-04 15:06 | 23.17677 | -150.15930 | 35162 ft | 493 kts | 60° |
| 2026-05-04 15:07 | 23.22392 | -150.05978 | 35160 ft | 493 kts | 60° |
| 2026-05-04 15:07 | 23.25527 | -149.99350 | 35159 ft | 493 kts | 60° |
| 2026-05-04 15:08 | 23.28661 | -149.92714 | 35157 ft | 493 kts | 60° |
| 2026-05-04 15:08 | 23.31791 | -149.86076 | 35161 ft | 493 kts | 60° |
| 2026-05-04 15:09 | 23.34916 | -149.79442 | 35161 ft | 493 kts | 60° |
| 2026-05-04 15:09 | 23.38041 | -149.72798 | 35168 ft | 493 kts | 60° |
| 2026-05-04 15:10 | 23.42705 | -149.62866 | 35167 ft | 493 kts | 60° |
| 2026-05-04 15:11 | 23.47377 | -149.52894 | 35166 ft | 492 kts | 60° |
| 2026-05-04 15:11 | 23.50491 | -149.46238 | 35169 ft | 492 kts | 60° |
| 2026-05-04 15:12 | 23.53595 | -149.39594 | 35169 ft | 492 kts | 60° |
| 2026-05-04 15:12 | 23.56681 | -149.32980 | 35174 ft | 492 kts | 60° |
| 2026-05-04 15:13 | 23.59782 | -149.26323 | 35169 ft | 492 kts | 60° |
| 2026-05-04 15:13 | 23.62875 | -149.19673 | 35170 ft | 492 kts | 60° |
| 2026-05-04 15:14 | 23.65968 | -149.13016 | 35170 ft | 491 kts | 60° |
| 2026-05-04 15:14 | 23.69037 | -149.06400 | 35172 ft | 491 kts | 61° |
| 2026-05-04 15:15 | 23.72120 | -148.99745 | 35177 ft | 491 kts | 61° |
| 2026-05-04 15:15 | 23.75200 | -148.93088 | 35188 ft | 491 kts | 61° |
| 2026-05-04 15:16 | 23.79816 | -148.83092 | 35176 ft | 491 kts | 61° |
| 2026-05-04 15:17 | 23.84423 | -148.73096 | 35177 ft | 491 kts | 61° |
| 2026-05-04 15:17 | 23.89025 | -148.63089 | 35177 ft | 491 kts | 61° |
| 2026-05-04 15:18 | 23.92087 | -148.56418 | 35177 ft | 491 kts | 61° |
| 2026-05-04 15:19 | 23.96661 | -148.46437 | 35175 ft | 491 kts | 61° |
| 2026-05-04 15:19 | 24.00729 | -148.37543 | 35179 ft | 491 kts | 61° |
| 2026-05-04 15:20 | 24.03780 | -148.30858 | 35178 ft | 491 kts | 61° |
| 2026-05-04 15:20 | 24.07323 | -148.23086 | 35183 ft | 491 kts | 61° |
| 2026-05-04 15:21 | 24.09861 | -148.17512 | 35184 ft | 491 kts | 61° |
| 2026-05-04 15:22 | 24.14420 | -148.07480 | 35185 ft | 491 kts | 61° |
| 2026-05-04 15:22 | 24.18972 | -147.97444 | 35182 ft | 490 kts | 61° |
| 2026-05-04 15:23 | 24.22002 | -147.90749 | 35185 ft | 490 kts | 62° |
| 2026-05-04 15:23 | 24.25011 | -147.84093 | 35185 ft | 490 kts | 62° |
| 2026-05-04 15:24 | 24.31050 | -147.70704 | 35187 ft | 490 kts | 62° |
| 2026-05-04 15:25 | 24.34067 | -147.64000 | 35184 ft | 490 kts | 62° |
| 2026-05-04 15:26 | 24.38581 | -147.53951 | 35182 ft | 489 kts | 62° |
| 2026-05-04 15:26 | 24.43071 | -147.43936 | 35184 ft | 489 kts | 62° |
| 2026-05-04 15:27 | 24.47569 | -147.33879 | 35186 ft | 489 kts | 62° |
| 2026-05-04 15:28 | 24.52057 | -147.23823 | 35184 ft | 489 kts | 62° |
| 2026-05-04 15:29 | 24.56543 | -147.13751 | 35190 ft | 489 kts | 62° |
| 2026-05-04 15:30 | 24.66954 | -146.90286 | 35190 ft | 489 kts | 62° |
| 2026-05-04 15:31 | 24.71413 | -146.80199 | 35191 ft | 489 kts | 62° |
| 2026-05-04 15:32 | 24.78816 | -146.63400 | 35190 ft | 488 kts | 62° |
| 2026-05-04 15:34 | 24.86212 | -146.46558 | 35191 ft | 488 kts | 62° |
| 2026-05-04 15:34 | 24.90641 | -146.36441 | 35193 ft | 488 kts | 62° |
| 2026-05-04 15:35 | 24.95039 | -146.26371 | 35196 ft | 488 kts | 62° |
| 2026-05-04 15:36 | 24.99447 | -146.16258 | 35191 ft | 488 kts | 62° |
| 2026-05-04 15:36 | 25.02387 | -146.09499 | 35194 ft | 488 kts | 62° |
| 2026-05-04 15:37 | 25.05320 | -146.02744 | 35192 ft | 488 kts | 62° |
| 2026-05-04 15:37 | 25.08248 | -145.95992 | 35194 ft | 488 kts | 62° |
| 2026-05-04 15:38 | 25.11177 | -145.89227 | 35196 ft | 488 kts | 62° |
| 2026-05-04 15:38 | 25.14084 | -145.82504 | 35200 ft | 488 kts | 62° |
| 2026-05-04 15:39 | 25.17010 | -145.75725 | 35202 ft | 488 kts | 62° |
| 2026-05-04 15:40 | 25.21394 | -145.65551 | 35198 ft | 489 kts | 62° |
| 2026-05-04 15:40 | 25.24291 | -145.58812 | 35201 ft | 489 kts | 62° |
| 2026-05-04 15:41 | 25.27202 | -145.52032 | 35201 ft | 489 kts | 62° |
| 2026-05-04 15:41 | 25.30110 | -145.45247 | 35209 ft | 488 kts | 62° |
| 2026-05-04 15:42 | 25.33016 | -145.38456 | 35203 ft | 488 kts | 62° |
| 2026-05-04 15:42 | 25.35921 | -145.31654 | 35204 ft | 488 kts | 63° |
| 2026-05-04 15:43 | 25.38802 | -145.24896 | 35205 ft | 488 kts | 63° |
| 2026-05-04 15:43 | 25.41694 | -145.18103 | 35207 ft | 488 kts | 63° |
| 2026-05-04 15:44 | 25.44583 | -145.11306 | 35219 ft | 488 kts | 63° |
| 2026-05-04 15:44 | 25.47478 | -145.04485 | 35207 ft | 488 kts | 63° |
| 2026-05-04 15:45 | 25.50359 | -144.97684 | 35210 ft | 488 kts | 63° |
| 2026-05-04 15:45 | 25.53241 | -144.90872 | 35205 ft | 488 kts | 63° |
| 2026-05-04 15:46 | 25.56119 | -144.84058 | 35209 ft | 488 kts | 63° |
| 2026-05-04 15:46 | 25.58993 | -144.77244 | 35210 ft | 488 kts | 63° |
| 2026-05-04 15:47 | 25.61851 | -144.70457 | 35211 ft | 488 kts | 63° |
| 2026-05-04 15:47 | 25.64722 | -144.63627 | 35214 ft | 488 kts | 63° |
| 2026-05-04 15:48 | 25.67588 | -144.56799 | 35207 ft | 489 kts | 63° |
| 2026-05-04 15:48 | 25.71889 | -144.46530 | 35215 ft | 489 kts | 63° |
| 2026-05-04 15:49 | 25.74733 | -144.39727 | 35216 ft | 489 kts | 63° |
| 2026-05-04 15:49 | 25.77591 | -144.32881 | 35211 ft | 489 kts | 63° |
| 2026-05-04 15:50 | 25.80444 | -144.26034 | 35217 ft | 489 kts | 63° |
| 2026-05-04 15:50 | 25.83296 | -144.19179 | 35214 ft | 489 kts | 63° |
| 2026-05-04 15:51 | 25.86133 | -144.12348 | 35216 ft | 489 kts | 63° |
| 2026-05-04 15:51 | 25.88980 | -144.05483 | 35218 ft | 489 kts | 63° |
| 2026-05-04 15:52 | 25.91824 | -143.98614 | 35226 ft | 489 kts | 63° |
| 2026-05-04 15:52 | 25.94647 | -143.91786 | 35224 ft | 489 kts | 63° |
| 2026-05-04 15:53 | 25.97484 | -143.84912 | 35224 ft | 489 kts | 63° |
| 2026-05-04 15:53 | 26.00316 | -143.78038 | 35219 ft | 489 kts | 63° |
| 2026-05-04 15:54 | 26.03143 | -143.71165 | 35223 ft | 489 kts | 63° |
| 2026-05-04 15:54 | 26.05975 | -143.64270 | 35216 ft | 489 kts | 63° |
| 2026-05-04 15:55 | 26.08778 | -143.57433 | 35215 ft | 488 kts | 63° |
| 2026-05-04 15:55 | 26.11593 | -143.50555 | 35224 ft | 488 kts | 63° |
| 2026-05-04 15:56 | 26.14404 | -143.43679 | 35222 ft | 488 kts | 63° |
| 2026-05-04 15:56 | 26.17210 | -143.36802 | 35227 ft | 488 kts | 63° |
| 2026-05-04 15:57 | 26.20014 | -143.29918 | 35237 ft | 488 kts | 63° |
| 2026-05-04 15:57 | 26.22818 | -143.23023 | 35225 ft | 489 kts | 63° |
| 2026-05-04 15:58 | 26.25618 | -143.16125 | 35227 ft | 488 kts | 63° |
| 2026-05-04 15:58 | 26.28399 | -143.09263 | 35224 ft | 488 kts | 63° |
| 2026-05-04 15:59 | 26.31190 | -143.02366 | 35227 ft | 488 kts | 63° |
| 2026-05-04 15:59 | 26.33981 | -142.95458 | 35240 ft | 488 kts | 63° |
| 2026-05-04 16:00 | 26.36767 | -142.88549 | 35230 ft | 488 kts | 63° |
| 2026-05-04 16:00 | 26.39552 | -142.81631 | 35235 ft | 488 kts | 63° |
| 2026-05-04 16:01 | 26.42332 | -142.74717 | 35233 ft | 488 kts | 63° |
| 2026-05-04 16:01 | 26.45105 | -142.67806 | 35231 ft | 488 kts | 63° |
| 2026-05-04 16:02 | 26.47856 | -142.60937 | 35243 ft | 487 kts | 63° |
| 2026-05-04 16:03 | 26.51998 | -142.50576 | 35232 ft | 487 kts | 63° |
| 2026-05-04 16:03 | 26.54759 | -142.43656 | 35236 ft | 487 kts | 63° |
| 2026-05-04 16:04 | 26.57512 | -142.36742 | 35231 ft | 486 kts | 63° |
| 2026-05-04 16:04 | 26.61628 | -142.26387 | 35244 ft | 486 kts | 63° |
| 2026-05-04 16:05 | 26.64352 | -142.19518 | 35237 ft | 486 kts | 63° |
| 2026-05-04 16:06 | 26.68456 | -142.09145 | 35236 ft | 486 kts | 63° |
| 2026-05-04 16:07 | 26.73913 | -141.95314 | 35236 ft | 485 kts | 63° |
| 2026-05-04 16:08 | 26.79334 | -141.81528 | 35242 ft | 485 kts | 63° |
| 2026-05-04 16:09 | 26.86114 | -141.64219 | 35240 ft | 485 kts | 63° |
| 2026-05-04 16:10 | 26.91063 | -141.51536 | 35247 ft | 485 kts | 63° |
| 2026-05-04 16:11 | 26.96441 | -141.37709 | 35245 ft | 485 kts | 63° |
| 2026-05-04 16:12 | 27.04495 | -141.16910 | 35246 ft | 484 kts | 63° |
| 2026-05-04 16:13 | 27.09842 | -141.03043 | 35248 ft | 483 kts | 63° |
| 2026-05-04 16:14 | 27.15153 | -140.89221 | 35251 ft | 483 kts | 63° |
| 2026-05-04 16:16 | 27.21794 | -140.71868 | 35244 ft | 483 kts | 63° |
| 2026-05-04 16:17 | 27.28393 | -140.54549 | 35250 ft | 483 kts | 63° |
| 2026-05-04 16:18 | 27.33672 | -140.40638 | 35241 ft | 483 kts | 64° |
| 2026-05-04 16:19 | 27.40254 | -140.23225 | 35242 ft | 484 kts | 64° |
| 2026-05-04 16:20 | 27.46809 | -140.05806 | 35242 ft | 484 kts | 64° |
| 2026-05-04 16:22 | 27.53339 | -139.88374 | 35245 ft | 484 kts | 64° |
| 2026-05-04 16:23 | 27.61173 | -139.67355 | 35240 ft | 484 kts | 64° |
| 2026-05-04 16:25 | 27.68961 | -139.46347 | 35245 ft | 484 kts | 64° |
| 2026-05-04 16:26 | 27.77997 | -139.21824 | 35244 ft | 484 kts | 64° |
| 2026-05-04 16:28 | 27.84440 | -139.04241 | 35239 ft | 484 kts | 64° |
| 2026-05-04 16:29 | 27.93379 | -138.79708 | 35248 ft | 483 kts | 64° |
| 2026-05-04 16:31 | 27.99735 | -138.62145 | 35253 ft | 482 kts | 64° |
| 2026-05-04 16:32 | 28.07319 | -138.41082 | 35246 ft | 482 kts | 64° |
| 2026-05-04 16:33 | 28.12357 | -138.27020 | 35249 ft | 482 kts | 64° |
| 2026-05-04 16:34 | 28.16137 | -138.16439 | 35250 ft | 483 kts | 64° |
| 2026-05-04 16:35 | 28.23664 | -137.95272 | 35249 ft | 483 kts | 64° |
| 2026-05-04 16:36 | 28.27428 | -137.84641 | 35250 ft | 484 kts | 65° |
| 2026-05-04 16:37 | 28.31185 | -137.74003 | 35254 ft | 484 kts | 65° |
| 2026-05-04 16:38 | 28.36185 | -137.59791 | 35251 ft | 485 kts | 65° |
| 2026-05-04 16:39 | 28.42405 | -137.42037 | 35251 ft | 485 kts | 65° |
| 2026-05-04 16:40 | 28.47385 | -137.27761 | 35249 ft | 486 kts | 65° |
| 2026-05-04 16:41 | 28.53586 | -137.09903 | 35247 ft | 486 kts | 65° |
| 2026-05-04 16:43 | 28.59775 | -136.91993 | 35248 ft | 487 kts | 65° |
| 2026-05-04 16:43 | 28.63470 | -136.81257 | 35249 ft | 488 kts | 65° |
| 2026-05-04 16:45 | 28.70873 | -136.59647 | 35260 ft | 487 kts | 65° |
| 2026-05-04 16:46 | 28.76993 | -136.41684 | 35245 ft | 487 kts | 65° |
| 2026-05-04 16:47 | 28.81881 | -136.27275 | 35249 ft | 487 kts | 64° |
| 2026-05-04 16:48 | 28.86750 | -136.12859 | 35245 ft | 487 kts | 64° |
| 2026-05-04 16:49 | 28.91590 | -135.98472 | 35251 ft | 487 kts | 64° |
| 2026-05-04 16:50 | 28.96434 | -135.84016 | 35246 ft | 487 kts | 64° |
| 2026-05-04 16:51 | 29.00059 | -135.73156 | 35257 ft | 488 kts | 64° |
| 2026-05-04 16:52 | 29.04882 | -135.58655 | 35241 ft | 488 kts | 64° |
| 2026-05-04 16:53 | 29.08474 | -135.47816 | 35251 ft | 488 kts | 64° |
| 2026-05-04 16:54 | 29.13271 | -135.33286 | 35239 ft | 488 kts | 64° |
| 2026-05-04 16:55 | 29.20434 | -135.11481 | 35242 ft | 488 kts | 64° |
| 2026-05-04 16:56 | 29.26367 | -134.93312 | 35241 ft | 488 kts | 64° |
| 2026-05-04 16:57 | 29.29525 | -134.83600 | 35233 ft | 488 kts | 64° |
| 2026-05-04 16:58 | 29.34249 | -134.69024 | 35234 ft | 488 kts | 64° |
| 2026-05-04 17:00 | 29.41298 | -134.47155 | 35229 ft | 488 kts | 64° |
| 2026-05-04 17:01 | 29.47165 | -134.28847 | 35235 ft | 489 kts | 64° |
| 2026-05-04 17:02 | 29.51845 | -134.14168 | 35232 ft | 490 kts | 63° |
| 2026-05-04 17:03 | 29.55334 | -134.03184 | 35228 ft | 490 kts | 63° |
| 2026-05-04 17:03 | 29.58831 | -133.92140 | 35232 ft | 490 kts | 63° |
| 2026-05-04 17:04 | 29.63459 | -133.77464 | 35233 ft | 490 kts | 63° |
| 2026-05-04 17:05 | 29.68097 | -133.62694 | 35244 ft | 490 kts | 63° |
| 2026-05-04 17:06 | 29.71560 | -133.51621 | 35226 ft | 491 kts | 63° |
| 2026-05-04 17:07 | 29.74629 | -133.41779 | 35247 ft | 491 kts | 63° |
| 2026-05-04 17:07 | 29.77308 | -133.33162 | 35212 ft | 491 kts | 63° |
| 2026-05-04 17:08 | 29.80757 | -133.22033 | 35249 ft | 491 kts | 63° |
| 2026-05-04 17:09 | 29.83042 | -133.14644 | 35225 ft | 493 kts | 63° |
| 2026-05-04 17:09 | 29.85340 | -133.07194 | 35218 ft | 493 kts | 63° |
| 2026-05-04 17:10 | 29.91078 | -132.88512 | 35215 ft | 495 kts | 63° |
| 2026-05-04 17:11 | 29.93353 | -132.81074 | 35213 ft | 495 kts | 63° |
| 2026-05-04 17:12 | 29.96779 | -132.69842 | 35219 ft | 495 kts | 63° |
| 2026-05-04 17:13 | 30.02472 | -132.51096 | 35217 ft | 495 kts | 62° |
| 2026-05-04 17:14 | 30.06998 | -132.36110 | 35219 ft | 496 kts | 62° |
| 2026-05-04 17:15 | 30.10393 | -132.24824 | 35210 ft | 496 kts | 62° |
| 2026-05-04 17:16 | 30.14911 | -132.09744 | 35207 ft | 497 kts | 62° |
| 2026-05-04 17:17 | 30.19413 | -131.94645 | 35211 ft | 498 kts | 62° |
| 2026-05-04 17:18 | 30.23899 | -131.79525 | 35201 ft | 498 kts | 62° |
| 2026-05-04 17:19 | 30.28384 | -131.64339 | 35206 ft | 499 kts | 62° |
| 2026-05-04 17:20 | 30.32845 | -131.49158 | 35207 ft | 500 kts | 62° |
| 2026-05-04 17:20 | 30.36192 | -131.37710 | 35193 ft | 500 kts | 62° |
| 2026-05-04 17:21 | 30.40633 | -131.22459 | 35195 ft | 499 kts | 63° |
| 2026-05-04 17:22 | 30.42845 | -131.14833 | 35192 ft | 499 kts | 63° |
| 2026-05-04 17:23 | 30.47238 | -130.99639 | 35191 ft | 499 kts | 63° |
| 2026-05-04 17:24 | 30.50537 | -130.88182 | 35211 ft | 500 kts | 63° |
| 2026-05-04 17:25 | 30.54932 | -130.72845 | 35191 ft | 501 kts | 64° |
| 2026-05-04 17:26 | 30.59302 | -130.57519 | 35187 ft | 501 kts | 64° |
| 2026-05-04 17:27 | 30.64759 | -130.38275 | 35192 ft | 502 kts | 64° |
| 2026-05-04 17:28 | 30.69101 | -130.22874 | 35207 ft | 501 kts | 65° |
| 2026-05-04 17:29 | 30.75549 | -129.99853 | 35197 ft | 498 kts | 66° |
| 2026-05-04 17:31 | 30.80866 | -129.80740 | 35177 ft | 495 kts | 66° |
| 2026-05-04 17:32 | 30.86113 | -129.61759 | 35173 ft | 493 kts | 67° |
| 2026-05-04 17:33 | 30.90298 | -129.46535 | 35178 ft | 493 kts | 68° |
| 2026-05-04 17:34 | 30.94452 | -129.31344 | 35175 ft | 494 kts | 68° |
| 2026-05-04 17:35 | 30.99651 | -129.12221 | 35190 ft | 496 kts | 69° |
| 2026-05-04 17:36 | 31.01718 | -129.04584 | 35175 ft | 497 kts | 69° |
| 2026-05-04 17:36 | 31.03803 | -128.96858 | 35168 ft | 499 kts | 69° |
| 2026-05-04 17:37 | 31.05883 | -128.89130 | 35179 ft | 500 kts | 69° |
| 2026-05-04 17:37 | 31.07963 | -128.81383 | 35163 ft | 501 kts | 70° |
| 2026-05-04 17:38 | 31.10046 | -128.73604 | 35157 ft | 502 kts | 70° |
| 2026-05-04 17:38 | 31.12115 | -128.65854 | 35161 ft | 503 kts | 70° |
| 2026-05-04 17:39 | 31.15241 | -128.54111 | 35168 ft | 506 kts | 71° |
| 2026-05-04 17:39 | 31.17329 | -128.46238 | 35159 ft | 508 kts | 71° |
| 2026-05-04 17:40 | 31.19420 | -128.38334 | 35156 ft | 509 kts | 71° |
| 2026-05-04 17:40 | 31.21494 | -128.30469 | 35155 ft | 509 kts | 71° |
| 2026-05-04 17:41 | 31.23576 | -128.22555 | 35155 ft | 509 kts | 71° |
| 2026-05-04 17:41 | 31.25652 | -128.14641 | 35152 ft | 509 kts | 71° |
| 2026-05-04 17:42 | 31.27726 | -128.06713 | 35162 ft | 510 kts | 71° |
| 2026-05-04 17:42 | 31.29784 | -127.98822 | 35157 ft | 510 kts | 72° |
| 2026-05-04 17:43 | 31.31850 | -127.90881 | 35150 ft | 511 kts | 72° |
| 2026-05-04 17:43 | 31.33917 | -127.82915 | 35161 ft | 511 kts | 72° |
| 2026-05-04 17:44 | 31.35980 | -127.74940 | 35159 ft | 512 kts | 72° |
| 2026-05-04 17:44 | 31.38029 | -127.66997 | 35149 ft | 513 kts | 73° |
| 2026-05-04 17:45 | 31.40091 | -127.58978 | 35157 ft | 515 kts | 73° |
| 2026-05-04 17:45 | 31.42152 | -127.50944 | 35155 ft | 516 kts | 73° |
| 2026-05-04 17:46 | 31.43866 | -127.44244 | 35160 ft | 517 kts | 73° |
| 2026-05-04 17:46 | 31.45929 | -127.36156 | 35150 ft | 518 kts | 73° |
| 2026-05-04 17:47 | 31.47989 | -127.28058 | 35151 ft | 519 kts | 73° |
| 2026-05-04 17:47 | 31.50046 | -127.19950 | 35149 ft | 519 kts | 74° |
| 2026-05-04 17:48 | 31.52088 | -127.11876 | 35146 ft | 520 kts | 74° |
| 2026-05-04 17:48 | 31.54136 | -127.03752 | 35139 ft | 520 kts | 74° |
| 2026-05-04 17:49 | 31.56181 | -126.95621 | 35141 ft | 520 kts | 74° |
| 2026-05-04 17:49 | 31.58224 | -126.87471 | 35143 ft | 521 kts | 74° |
| 2026-05-04 17:50 | 31.60263 | -126.79311 | 35142 ft | 521 kts | 74° |
| 2026-05-04 17:50 | 31.62299 | -126.71141 | 35138 ft | 521 kts | 75° |
| 2026-05-04 17:51 | 31.64317 | -126.63018 | 35145 ft | 522 kts | 75° |
| 2026-05-04 17:51 | 31.66345 | -126.54831 | 35142 ft | 522 kts | 75° |
| 2026-05-04 17:52 | 31.68370 | -126.46633 | 35141 ft | 523 kts | 76° |
| 2026-05-04 17:52 | 31.70391 | -126.38423 | 35143 ft | 524 kts | 76° |
| 2026-05-04 17:53 | 31.72411 | -126.30193 | 35140 ft | 524 kts | 76° |
| 2026-05-04 17:53 | 31.74426 | -126.21961 | 35131 ft | 525 kts | 76° |
| 2026-05-04 17:54 | 31.76441 | -126.13700 | 35119 ft | 525 kts | 76° |
| 2026-05-04 17:54 | 31.78436 | -126.05499 | 35129 ft | 526 kts | 77° |
| 2026-05-04 17:55 | 31.80446 | -125.97210 | 35142 ft | 527 kts | 77° |
| 2026-05-04 17:55 | 31.82454 | -125.88898 | 35142 ft | 528 kts | 77° |
| 2026-05-04 17:56 | 31.84460 | -125.80574 | 35139 ft | 529 kts | 77° |
| 2026-05-04 17:56 | 31.86465 | -125.72229 | 35132 ft | 530 kts | 77° |
| 2026-05-04 17:57 | 31.88468 | -125.63865 | 35138 ft | 531 kts | 77° |
| 2026-05-04 17:57 | 31.90454 | -125.55545 | 35136 ft | 532 kts | 77° |
| 2026-05-04 17:58 | 31.92452 | -125.47144 | 35128 ft | 533 kts | 78° |
| 2026-05-04 17:58 | 31.94447 | -125.38735 | 35139 ft | 533 kts | 78° |
| 2026-05-04 17:59 | 31.96435 | -125.30323 | 35139 ft | 534 kts | 78° |
| 2026-05-04 18:00 | 31.99415 | -125.17669 | 35135 ft | 534 kts | 78° |
| 2026-05-04 18:00 | 32.01384 | -125.09273 | 35141 ft | 534 kts | 78° |
| 2026-05-04 18:01 | 32.03358 | -125.00827 | 35137 ft | 535 kts | 78° |
| 2026-05-04 18:01 | 32.05329 | -124.92364 | 35132 ft | 535 kts | 79° |
| 2026-05-04 18:02 | 32.08274 | -124.79671 | 35128 ft | 535 kts | 79° |
| 2026-05-04 18:02 | 32.10231 | -124.71202 | 35122 ft | 534 kts | 79° |
| 2026-05-04 18:03 | 32.12169 | -124.62786 | 35135 ft | 534 kts | 79° |
| 2026-05-04 18:03 | 32.14110 | -124.54329 | 35134 ft | 534 kts | 79° |
| 2026-05-04 18:04 | 32.16048 | -124.45859 | 35124 ft | 534 kts | 79° |
| 2026-05-04 18:05 | 32.18940 | -124.33163 | 35122 ft | 533 kts | 79° |
| 2026-05-04 18:05 | 32.20846 | -124.24760 | 35132 ft | 533 kts | 80° |
| 2026-05-04 18:06 | 32.23713 | -124.12070 | 35132 ft | 532 kts | 80° |
| 2026-05-04 18:06 | 32.25568 | -124.03591 | 35127 ft | 531 kts | 81° |
| 2026-05-04 18:07 | 32.27321 | -123.95115 | 35110 ft | 531 kts | 81° |
| 2026-05-04 18:07 | 32.29054 | -123.86677 | 35120 ft | 531 kts | 81° |
| 2026-05-04 18:08 | 32.30804 | -123.78200 | 35123 ft | 531 kts | 81° |
| 2026-05-04 18:08 | 32.32558 | -123.69716 | 35122 ft | 531 kts | 81° |
| 2026-05-04 18:09 | 32.36049 | -123.52734 | 35121 ft | 531 kts | 81° |
| 2026-05-04 18:10 | 32.37772 | -123.44303 | 35109 ft | 530 kts | 81° |
| 2026-05-04 18:10 | 32.39500 | -123.35814 | 35118 ft | 530 kts | 81° |
| 2026-05-04 18:11 | 32.41222 | -123.27325 | 35120 ft | 530 kts | 81° |
| 2026-05-04 18:11 | 32.42938 | -123.18832 | 35116 ft | 530 kts | 81° |
| 2026-05-04 18:12 | 32.44647 | -123.10342 | 35110 ft | 530 kts | 81° |
| 2026-05-04 18:12 | 32.46355 | -123.01831 | 35116 ft | 531 kts | 81° |
| 2026-05-04 18:13 | 32.48155 | -122.93390 | 35112 ft | 532 kts | 79° |
| 2026-05-04 18:14 | 32.51157 | -122.80693 | 35110 ft | 533 kts | 79° |
| 2026-05-04 18:14 | 32.53131 | -122.72220 | 35116 ft | 534 kts | 79° |
| 2026-05-04 18:15 | 32.57017 | -122.55188 | 35102 ft | 536 kts | 80° |
| 2026-05-04 18:16 | 32.58957 | -122.46639 | 35115 ft | 537 kts | 80° |
| 2026-05-04 18:16 | 32.60886 | -122.38121 | 35110 ft | 539 kts | 80° |
| 2026-05-04 18:17 | 32.63800 | -122.25197 | 35108 ft | 541 kts | 80° |
| 2026-05-04 18:18 | 32.66713 | -122.12208 | 35110 ft | 543 kts | 80° |
| 2026-05-04 18:18 | 32.68639 | -122.03568 | 35091 ft | 544 kts | 81° |
| 2026-05-04 18:19 | 32.71353 | -121.90466 | 35112 ft | 545 kts | 82° |
| 2026-05-04 18:19 | 32.73121 | -121.81698 | 35106 ft | 546 kts | 82° |
| 2026-05-04 18:20 | 32.74902 | -121.72918 | 35094 ft | 547 kts | 83° |
| 2026-05-04 18:20 | 32.76694 | -121.64105 | 35106 ft | 548 kts | 83° |
| 2026-05-04 18:21 | 32.78472 | -121.55341 | 35106 ft | 549 kts | 83° |
| 2026-05-04 18:21 | 32.80259 | -121.46489 | 35086 ft | 550 kts | 83° |
| 2026-05-04 18:22 | 32.82042 | -121.37622 | 35104 ft | 551 kts | 83° |
| 2026-05-04 18:22 | 32.83809 | -121.28796 | 35104 ft | 552 kts | 83° |
| 2026-05-04 18:23 | 32.85582 | -121.19903 | 35086 ft | 554 kts | 84° |
| 2026-05-04 18:23 | 32.87354 | -121.10985 | 35104 ft | 555 kts | 84° |
| 2026-05-04 18:24 | 32.89126 | -121.02030 | 35105 ft | 556 kts | 84° |
| 2026-05-04 18:24 | 32.90891 | -120.93074 | 35068 ft | 556 kts | 84° |
| 2026-05-04 18:25 | 32.92653 | -120.84101 | 35092 ft | 556 kts | 84° |
| 2026-05-04 18:25 | 32.94400 | -120.75166 | 35096 ft | 557 kts | 84° |
| 2026-05-04 18:26 | 32.96151 | -120.66171 | 35092 ft | 557 kts | 84° |
| 2026-05-04 18:26 | 32.97895 | -120.57179 | 35097 ft | 557 kts | 84° |
| 2026-05-04 18:27 | 32.99631 | -120.48191 | 35091 ft | 557 kts | 85° |
| 2026-05-04 18:27 | 33.01361 | -120.39203 | 35056 ft | 556 kts | 85° |
| 2026-05-04 18:28 | 33.03083 | -120.30215 | 35087 ft | 555 kts | 85° |
| 2026-05-04 18:28 | 33.04793 | -120.21243 | 35098 ft | 556 kts | 85° |
| 2026-05-04 18:29 | 33.06490 | -120.12307 | 35098 ft | 556 kts | 86° |
| 2026-05-04 18:29 | 33.08194 | -120.03297 | 35099 ft | 556 kts | 86° |
| 2026-05-04 18:30 | 33.10739 | -119.89771 | 35094 ft | 557 kts | 86° |
| 2026-05-04 18:31 | 33.12418 | -119.80799 | 35066 ft | 558 kts | 86° |
| 2026-05-04 18:31 | 33.14104 | -119.71759 | 35093 ft | 558 kts | 87° |
| 2026-05-04 18:32 | 33.15783 | -119.62712 | 35097 ft | 559 kts | 87° |
| 2026-05-04 18:32 | 33.17458 | -119.53643 | 35095 ft | 560 kts | 87° |
| 2026-05-04 18:33 | 33.19135 | -119.44533 | 35092 ft | 561 kts | 86° |
| 2026-05-04 18:33 | 33.20803 | -119.35429 | 35089 ft | 561 kts | 87° |
| 2026-05-04 18:34 | 33.22184 | -119.27863 | 35089 ft | 561 kts | 87° |
| 2026-05-04 18:34 | 33.23839 | -119.18757 | 35083 ft | 561 kts | 86° |
| 2026-05-04 18:35 | 33.25759 | -119.08148 | 35092 ft | 561 kts | 86° |
| 2026-05-04 18:35 | 33.27124 | -119.00566 | 35090 ft | 561 kts | 86° |
| 2026-05-04 18:36 | 33.28760 | -118.91447 | 35082 ft | 560 kts | 86° |
| 2026-05-04 18:36 | 33.30384 | -118.82353 | 35086 ft | 559 kts | 86° |
| 2026-05-04 18:37 | 33.32002 | -118.73245 | 34338 ft | 562 kts | 86° |
| 2026-05-04 18:37 | 33.32812 | -118.68667 | 33587 ft | 562 kts | 87° |
| 2026-05-04 18:37 | 33.33610 | -118.64149 | 32768 ft | 563 kts | 86° |
| 2026-05-04 18:37 | 33.34418 | -118.59567 | 31965 ft | 563 kts | 86° |
| 2026-05-04 18:38 | 33.35225 | -118.54979 | 31121 ft | 565 kts | 85° |
| 2026-05-04 18:38 | 33.36036 | -118.50362 | 30232 ft | 568 kts | 85° |
| 2026-05-04 18:38 | 33.36848 | -118.45725 | 29180 ft | 570 kts | 85° |
| 2026-05-04 18:38 | 33.37378 | -118.41148 | 28986 ft | 541 kts | 96° |
| 2026-05-04 18:39 | 33.37073 | -118.36778 | 28263 ft | 516 kts | 111° |
| 2026-05-04 18:39 | 33.36400 | -118.32599 | 27707 ft | 508 kts | 112° |
| 2026-05-04 18:39 | 33.35732 | -118.28464 | 27121 ft | 505 kts | 111° |
| 2026-05-04 18:39 | 33.35128 | -118.24335 | 26547 ft | 503 kts | 109° |
| 2026-05-04 18:40 | 33.34570 | -118.20211 | 25958 ft | 502 kts | 108° |
| 2026-05-04 18:40 | 33.34022 | -118.16154 | 25407 ft | 497 kts | 109° |
| 2026-05-04 18:40 | 33.33408 | -118.12109 | 24848 ft | 492 kts | 109° |
| 2026-05-04 18:40 | 33.32766 | -118.08109 | 24285 ft | 488 kts | 109° |
| 2026-05-04 18:41 | 33.32119 | -118.04143 | 23714 ft | 485 kts | 109° |
| 2026-05-04 18:41 | 33.31477 | -118.00188 | 23079 ft | 481 kts | 108° |
| 2026-05-04 18:41 | 33.30851 | -117.96282 | 22495 ft | 475 kts | 108° |
| 2026-05-04 18:41 | 33.30241 | -117.92433 | 21944 ft | 466 kts | 108° |
| 2026-05-04 18:42 | 33.29644 | -117.88657 | 21409 ft | 459 kts | 108° |
| 2026-05-04 18:42 | 33.29052 | -117.84927 | 20893 ft | 454 kts | 108° |
| 2026-05-04 18:42 | 33.28462 | -117.81227 | 20378 ft | 450 kts | 107° |
| 2026-05-04 18:42 | 33.27885 | -117.77611 | 19878 ft | 446 kts | 107° |
| 2026-05-04 18:43 | 33.27304 | -117.73983 | 19377 ft | 443 kts | 107° |
| 2026-05-04 18:43 | 33.26726 | -117.70371 | 18880 ft | 440 kts | 107° |
| 2026-05-04 18:43 | 33.26152 | -117.66795 | 18355 ft | 438 kts | 106° |
| 2026-05-04 18:43 | 33.25550 | -117.63242 | 17795 ft | 432 kts | 111° |
| 2026-05-04 18:44 | 33.24369 | -117.60048 | 17266 ft | 412 kts | 130° |
| 2026-05-04 18:44 | 33.23205 | -117.58244 | 16959 ft | 399 kts | 141° |
| 2026-05-04 18:44 | 33.20517 | -117.55354 | 16297 ft | 388 kts | 147° |
| 2026-05-04 18:44 | 33.18463 | -117.53285 | 15858 ft | 385 kts | 147° |
| 2026-05-04 18:45 | 33.16439 | -117.51207 | 15401 ft | 383 kts | 146° |
| 2026-05-04 18:45 | 33.14442 | -117.49121 | 14953 ft | 379 kts | 145° |
| 2026-05-04 18:45 | 33.12445 | -117.47165 | 14513 ft | 372 kts | 150° |
| 2026-05-04 18:45 | 33.10307 | -117.45402 | 14097 ft | 367 kts | 153° |
| 2026-05-04 18:46 | 33.08224 | -117.43732 | 13670 ft | 364 kts | 152° |
| 2026-05-04 18:46 | 33.06140 | -117.42033 | 13220 ft | 362 kts | 152° |
| 2026-05-04 18:46 | 33.04080 | -117.40329 | 12772 ft | 360 kts | 151° |
| 2026-05-04 18:46 | 33.02036 | -117.38616 | 12433 ft | 357 kts | 151° |
| 2026-05-04 18:47 | 33.00015 | -117.36916 | 11989 ft | 351 kts | 150° |
| 2026-05-04 18:47 | 32.98084 | -117.35287 | 11772 ft | 330 kts | 150° |
| 2026-05-04 18:47 | 32.96261 | -117.33752 | 11529 ft | 312 kts | 151° |
| 2026-05-04 18:47 | 32.94513 | -117.32287 | 11158 ft | 300 kts | 151° |
| 2026-05-04 18:48 | 32.92857 | -117.30902 | 10795 ft | 290 kts | 151° |
| 2026-05-04 18:48 | 32.91235 | -117.29548 | 10468 ft | 280 kts | 151° |
| 2026-05-04 18:48 | 32.89649 | -117.28231 | 9985 ft | 277 kts | 150° |
| 2026-05-04 18:48 | 32.88024 | -117.26889 | 9020 ft | 290 kts | 149° |
| 2026-05-04 18:49 | 32.86397 | -117.25537 | 8662 ft | 280 kts | 149° |
| 2026-05-04 18:49 | 32.84822 | -117.24227 | 8301 ft | 272 kts | 149° |
| 2026-05-04 18:49 | 32.83298 | -117.22960 | 7988 ft | 263 kts | 148° |
| 2026-05-04 18:49 | 32.81824 | -117.21683 | 7703 ft | 265 kts | 139° |
| 2026-05-04 18:50 | 32.80833 | -117.19814 | 7396 ft | 272 kts | 109° |
| 2026-05-04 18:50 | 32.80323 | -117.17646 | 7095 ft | 273 kts | 104° |
| 2026-05-04 18:50 | 32.79858 | -117.15437 | 6781 ft | 277 kts | 104° |
| 2026-05-04 18:50 | 32.79381 | -117.13200 | 6454 ft | 281 kts | 104° |
| 2026-05-04 18:51 | 32.78888 | -117.10948 | 6150 ft | 282 kts | 104° |
| 2026-05-04 18:51 | 32.78405 | -117.08765 | 6116 ft | 271 kts | 105° |
| 2026-05-04 18:51 | 32.77931 | -117.06643 | 6052 ft | 263 kts | 105° |
| 2026-05-04 18:51 | 32.77434 | -117.04537 | 5790 ft | 266 kts | 106° |
| 2026-05-04 18:52 | 32.76919 | -117.02431 | 5536 ft | 263 kts | 106° |
| 2026-05-04 18:52 | 32.76418 | -117.00388 | 5329 ft | 250 kts | 106° |
| 2026-05-04 18:52 | 32.75936 | -116.98435 | 5100 ft | 242 kts | 109° |
| 2026-05-04 18:52 | 32.75161 | -116.96745 | 4828 ft | 226 kts | 136° |
| 2026-05-04 18:53 | 32.73946 | -116.95737 | 4582 ft | 202 kts | 162° |
| 2026-05-04 18:53 | 32.72667 | -116.95413 | 4383 ft | 181 kts | 181° |
| 2026-05-04 18:53 | 32.71475 | -116.95585 | 4166 ft | 166 kts | 200° |
| 2026-05-04 18:53 | 32.70478 | -116.96138 | 4001 ft | 154 kts | 216° |
| 2026-05-04 18:54 | 32.69701 | -116.96953 | 3832 ft | 146 kts | 232° |
| 2026-05-04 18:54 | 32.69148 | -116.97963 | 3615 ft | 148 kts | 248° |
| 2026-05-04 18:54 | 32.68868 | -116.99118 | 3450 ft | 144 kts | 263° |
| 2026-05-04 18:54 | 32.68857 | -117.00286 | 3250 ft | 140 kts | 276° |
| 2026-05-04 18:55 | 32.69063 | -117.01398 | 3094 ft | 138 kts | 284° |
| 2026-05-04 18:55 | 32.69606 | -117.03609 | 2753 ft | 140 kts | 285° |
| 2026-05-04 18:55 | 32.69890 | -117.04748 | 2572 ft | 146 kts | 285° |
| 2026-05-04 18:56 | 32.70171 | -117.05895 | 2367 ft | 146 kts | 285° |
| 2026-05-04 18:56 | 32.70451 | -117.07034 | 2160 ft | 142 kts | 284° |
| 2026-05-04 18:56 | 32.70719 | -117.08119 | 2007 ft | 135 kts | 284° |
| 2026-05-04 18:56 | 32.70985 | -117.09208 | 1757 ft | 137 kts | 285° |
| 2026-05-04 18:57 | 32.71247 | -117.10279 | 1541 ft | 134 kts | 285° |
| 2026-05-04 18:57 | 32.71506 | -117.11342 | 1358 ft | 134 kts | 284° |
| 2026-05-04 18:57 | 32.71760 | -117.12387 | 1146 ft | 129 kts | 285° |
| 2026-05-04 18:57 | 32.72011 | -117.13419 | 938 ft | 130 kts | 286° |
| 2026-05-04 18:58 | 32.72265 | -117.14467 | 745 ft | 133 kts | 286° |
| 2026-05-04 18:58 | 32.72520 | -117.15516 | 589 ft | 132 kts | 285° |
| 2026-05-04 18:58 | 32.72768 | -117.16560 | 366 ft | 135 kts | 283° |
| 2026-05-04 18:58 | 32.73038 | -117.17660 | 123 ft | 140 kts | 284° |
| 2026-05-04 18:59 | 32.73288 | -117.18717 | 17 ft | 124 kts | 288° |
| 2026-05-04 18:59 | 32.73469 | -117.19429 | 23 ft | 42 kts | 286° |
| 2026-05-04 18:59 | 32.73510 | -117.19600 | 26 ft | 1 kts | 286° |
| 2026-05-04 18:59 | 32.73526 | -117.19667 | 27 ft | 11 kts | 285° |
| 2026-05-04 19:00 | 32.73531 | -117.19775 | 25 ft | 15 kts | 260° |
| 2026-05-04 19:00 | 32.73503 | -117.19829 | 26 ft | 0 kts | 216° |
| 2026-05-04 19:01 | 32.73499 | -117.19833 | 26 ft | 5 kts | 215° |
| 2026-05-04 19:01 | 32.73460 | -117.19809 | 23 ft | 8 kts | 112° |
| 2026-05-04 19:01 | 32.73443 | -117.19744 | 22 ft | 10 kts | 106° |
| 2026-05-04 19:02 | 32.73421 | -117.19651 | 22 ft | 13 kts | 105° |
| 2026-05-04 19:02 | 32.73396 | -117.19544 | 23 ft | 13 kts | 104° |
| 2026-05-04 19:02 | 32.73371 | -117.19442 | 22 ft | 12 kts | 104° |
| 2026-05-04 19:02 | 32.73348 | -117.19345 | 20 ft | 12 kts | 105° |
| 2026-05-04 19:03 | 32.73326 | -117.19249 | 20 ft | 12 kts | 115° |
| 2026-05-04 19:03 | 32.73255 | -117.19235 | 19 ft | 12 kts | 213° |
| 2026-05-04 19:03 | 32.73285 | -117.19305 | 20 ft | 11 kts | 310° |
| 2026-05-04 19:03 | 32.73292 | -117.19394 | 21 ft | 11 kts | 250° |
| 2026-05-04 19:04 | 32.73251 | -117.19467 | 21 ft | 11 kts | 219° |
| 2026-05-04 19:04 | 32.73206 | -117.19531 | 19 ft | 10 kts | 268° |
| 2026-05-04 19:04 | 32.73235 | -117.19594 | 19 ft | 4 kts | 305° |
| 2026-05-04 19:04 | 32.73237 | -117.19597 | 19 ft | 0 kts | 306° |